Time;durP1;ratioP1;P1;durP2;ratioP2;P2;SDS_P1;SDS_P2;PMS_P1;PMS_P2;Temp;Humidity;BMP_temperature;BMP_pressure;BME280_temperature;BME280_humidity;BME280_pressure;Samples;Min_cycle;Max_cycle;Signal;HPM_P1;HPM_P2
2022/01/02 00:02:18;;;;;;;6.93;6.40;;;;;;;10.44;100.00;100102.41;5092128;28;20709;-75
2022/01/02 00:04:49;;;;;;;6.53;5.93;;;;;;;10.41;100.00;100103.31;5092566;28;20210;-75
2022/01/02 00:07:17;;;;;;;6.30;5.90;;;;;;;10.34;100.00;100106.03;5091703;28;20217;-75
2022/01/02 00:09:47;;;;;;;7.27;6.77;;;;;;;10.23;100.00;100103.66;5092320;28;20199;-75
2022/01/02 00:12:17;;;;;;;7.33;6.73;;;;;;;10.17;100.00;100110.63;5089808;28;20196;-75
2022/01/02 00:14:46;;;;;;;7.20;6.70;;;;;;;10.07;100.00;100115.00;5090323;28;20594;-75
2022/01/02 00:17:16;;;;;;;6.90;6.40;;;;;;;10.05;100.00;100113.34;5089903;28;20208;-75
2022/01/02 00:19:51;;;;;;;7.70;7.00;;;;;;;9.95;100.00;100117.78;5090877;28;20261;-75
2022/01/02 00:22:25;;;;;;;7.17;6.40;;;;;;;9.90;100.00;100133.22;5090515;28;20195;-75
2022/01/02 00:24:54;;;;;;;7.97;6.57;;;;;;;9.89;100.00;100133.22;5089852;28;20634;-75
2022/01/02 00:27:22;;;;;;;7.10;6.63;;;;;;;9.88;100.00;100121.31;5089161;28;20199;-75
2022/01/02 00:29:51;;;;;;;7.47;6.97;;;;;;;9.95;100.00;100130.59;5090045;28;20199;-75
2022/01/02 00:32:19;;;;;;;7.00;6.50;;;;;;;9.94;100.00;100136.56;5089841;28;20609;-75
2022/01/02 00:34:50;;;;;;;6.87;6.37;;;;;;;9.87;100.00;100137.53;5090375;28;20207;-75
2022/01/02 00:37:17;;;;;;;6.97;6.27;;;;;;;9.84;100.00;100132.47;5090268;28;20621;-75
2022/01/02 00:39:45;;;;;;;7.00;6.50;;;;;;;9.72;100.00;100119.84;5090406;28;20202;-74
2022/01/02 00:42:18;;;;;;;7.20;6.33;;;;;;;9.75;100.00;100130.03;5090016;28;20604;-75
2022/01/02 00:44:54;;;;;;;7.20;6.70;;;;;;;9.60;100.00;100112.34;5091646;28;20205;-75
2022/01/02 00:47:26;;;;;;;7.10;6.43;;;;;;;9.72;100.00;100132.66;5091437;28;20187;-75
2022/01/02 00:50:04;;;;;;;6.97;6.47;;;;;;;9.62;100.00;100137.06;5091904;28;20673;-75
2022/01/02 00:52:34;;;;;;;7.20;6.67;;;;;;;9.56;100.00;100128.63;5090021;28;20209;-75
2022/01/02 00:55:04;;;;;;;7.27;6.77;;;;;;;9.50;100.00;100143.19;5091354;28;20571;-75
2022/01/02 00:57:35;;;;;;;7.00;6.50;;;;;;;9.47;100.00;100135.56;5091052;28;20215;-74
2022/01/02 01:00:10;;;;;;;7.90;7.30;;;;;;;9.42;100.00;100134.78;5091449;28;20202;-75
2022/01/02 01:02:44;;;;;;;6.77;6.27;;;;;;;9.47;100.00;100138.13;5090057;28;20223;-75
2022/01/02 01:05:11;;;;;;;6.70;6.10;;;;;;;9.51;100.00;100131.25;5090888;28;20672;-75
2022/01/02 01:07:39;;;;;;;7.50;7.00;;;;;;;9.44;100.00;100120.25;5090819;28;20192;-75
2022/01/02 01:10:11;;;;;;;6.73;6.27;;;;;;;9.61;100.00;100142.19;5090773;28;20230;-75
2022/01/02 01:12:38;;;;;;;6.87;6.37;;;;;;;9.54;100.00;100120.97;5091118;28;20199;-75
2022/01/02 01:15:08;;;;;;;6.93;6.40;;;;;;;9.59;100.00;100144.78;5090878;28;20187;-75
2022/01/02 01:17:37;;;;;;;7.20;6.70;;;;;;;9.56;100.00;100139.72;5091053;28;20211;-75
2022/01/02 01:20:05;;;;;;;6.60;6.10;;;;;;;9.61;100.00;100148.16;5091017;28;20207;-75
2022/01/02 01:22:32;;;;;;;7.50;7.00;;;;;;;9.66;100.00;100155.78;5089530;28;20192;-75
2022/01/02 01:24:59;;;;;;;7.63;7.03;;;;;;;9.69;100.00;100150.63;5090121;28;20195;-74
2022/01/02 01:27:27;;;;;;;6.73;6.20;;;;;;;9.68;100.00;100148.91;5090512;28;20206;-75
2022/01/02 01:29:54;;;;;;;7.57;7.03;;;;;;;9.71;100.00;100148.88;5090798;28;20222;-75
2022/01/02 01:32:21;;;;;;;6.57;6.07;;;;;;;9.71;100.00;100144.59;5090516;28;20207;-75
2022/01/02 01:34:48;;;;;;;6.17;5.77;;;;;;;9.76;100.00;100147.06;5090858;28;20203;-75
2022/01/02 01:37:15;;;;;;;6.10;5.70;;;;;;;9.74;100.00;100148.81;5089975;28;20211;-74
2022/01/02 01:39:42;;;;;;;6.93;6.40;;;;;;;9.79;100.00;100147.06;5090658;28;20195;-75
2022/01/02 01:42:11;;;;;;;6.87;6.30;;;;;;;9.78;100.00;100150.47;5090659;28;20686;-74
2022/01/02 01:45:28;;;;;;;7.40;6.60;;;;;;;9.80;100.00;100148.72;5089902;28;20199;-74
2022/01/02 01:47:39;;;;;;;6.93;6.53;;;;;;;9.80;100.00;100152.16;5089241;28;20294;-75
2022/01/02 01:50:08;;;;;;;6.23;5.83;;;;;;;9.73;100.00;100147.13;5090310;28;20574;-75
2022/01/02 01:52:34;;;;;;;6.93;6.33;;;;;;;9.79;100.00;100159.88;5090709;28;20203;-74
2022/01/02 01:55:01;;;;;;;6.07;5.70;;;;;;;9.64;100.00;100132.75;5089261;28;20205;-74
2022/01/02 01:57:28;;;;;;;6.27;5.70;;;;;;;9.72;100.00;100150.56;5089932;28;20211;-74
2022/01/02 01:59:56;;;;;;;6.40;6.00;;;;;;;9.60;100.00;100135.38;5090562;28;20199;-75
2022/01/02 02:02:24;;;;;;;6.40;6.00;;;;;;;9.57;100.00;100153.34;5090190;28;20223;-74
2022/01/02 02:04:51;;;;;;;5.57;5.20;;;;;;;9.38;100.00;100122.88;5090317;28;20199;-75
2022/01/02 02:07:26;;;;;;;7.80;6.20;;;;;;;9.48;100.00;100137.25;5089774;28;20195;-74
2022/01/02 02:10:04;;;;;;;6.77;6.30;;;;;;;9.41;100.00;100140.75;5090303;28;20203;-75
2022/01/02 02:12:31;;;;;;;7.63;6.93;;;;;;;9.35;100.00;100130.63;5087994;28;20195;-75
2022/01/02 02:15:00;;;;;;;7.60;6.97;;;;;;;9.42;100.00;100145.03;5089089;28;20556;-74
2022/01/02 02:17:28;;;;;;;6.37;5.87;;;;;;;9.29;100.00;100110.22;5087610;28;20225;-75
2022/01/02 02:20:11;;;;;;;7.50;6.90;;;;;;;9.49;100.00;100127.88;5087197;28;20199;-74
2022/01/02 02:22:40;;;;;;;6.07;5.77;;;;;;;9.37;100.00;100113.50;5085343;28;20203;-75
2022/01/02 02:25:07;;;;;;;6.47;6.07;;;;;;;9.56;100.00;100138.88;5085714;28;20199;-75
2022/01/02 02:27:35;;;;;;;6.70;6.13;;;;;;;9.58;100.00;100132.00;5088370;28;20568;-75
2022/01/02 02:30:02;;;;;;;5.60;5.20;;;;;;;9.69;100.00;100136.13;5088006;28;20199;-75
2022/01/02 02:32:29;;;;;;;6.77;6.17;;;;;;;9.67;100.00;100116.50;5088335;28;20667;-75
2022/01/02 02:34:56;;;;;;;7.10;6.53;;;;;;;9.84;100.00;100145.25;5090843;28;20191;-74
2022/01/02 02:37:25;;;;;;;6.57;6.07;;;;;;;9.93;100.00;100145.13;5092034;28;20690;-75
2022/01/02 02:39:54;;;;;;;6.87;6.27;;;;;;;9.99;100.00;100150.13;5092037;28;20290;-75
2022/01/02 02:42:31;;;;;;;6.30;5.90;;;;;;;10.05;100.00;100138.97;5091949;28;20209;-74
2022/01/02 02:48:58;;;;;;;6.30;6.00;;;;;;;10.09;100.00;100131.19;5091959;28;20210;-75
2022/01/02 02:50:45;;;;;;;5.87;5.57;;;;;;;10.12;100.00;100136.25;5092974;28;20202;-75
2022/01/02 02:53:14;;;;;;;6.97;6.43;;;;;;;10.09;100.00;100135.47;5093717;28;20671;-75
2022/01/02 02:55:45;;;;;;;6.80;6.40;;;;;;;10.10;100.00;100138.03;5094051;28;20671;-75
2022/01/02 02:58:38;;;;;;;6.37;5.97;;;;;;;10.06;100.00;100126.13;5093137;28;20211;-75
2022/01/02 03:01:04;;;;;;;6.50;6.07;;;;;;;9.85;100.00;100106.00;5093482;28;20773;-75
2022/01/02 03:03:32;;;;;;;7.30;6.80;;;;;;;10.00;100.00;100131.34;5092151;28;20223;-75
2022/01/02 03:05:59;;;;;;;7.03;6.43;;;;;;;9.91;100.00;100137.47;5093791;28;20204;-75
2022/01/02 03:08:28;;;;;;;6.87;6.33;;;;;;;9.92;100.00;100133.16;5093312;28;20202;-75
2022/01/02 03:10:55;;;;;;;7.83;7.03;;;;;;;9.88;100.00;100129.00;5093798;28;20222;-75
2022/01/02 03:13:22;;;;;;;7.17;6.67;;;;;;;9.92;100.00;100130.59;5093248;28;20203;-75
2022/01/02 03:15:49;;;;;;;7.10;6.57;;;;;;;9.88;100.00;100127.28;5093678;28;20663;-75
2022/01/02 03:18:16;;;;;;;7.17;6.67;;;;;;;9.82;100.00;100135.03;5091773;28;20219;-75
2022/01/02 03:20:43;;;;;;;7.83;7.33;;;;;;;9.74;100.00;100142.00;5092619;28;20203;-75
2022/01/02 03:23:09;;;;;;;7.97;7.37;;;;;;;9.65;100.00;100148.97;5092795;28;20281;-75
2022/01/02 03:25:38;;;;;;;6.97;6.57;;;;;;;9.44;100.00;100120.25;5093548;28;20198;-75
2022/01/02 03:28:05;;;;;;;7.03;6.53;;;;;;;9.64;100.00;100153.25;5091939;28;20202;-75
2022/01/02 03:30:32;;;;;;;9.93;7.97;;;;;;;9.65;100.00;100148.97;5092852;28;20689;-75
2022/01/02 03:32:59;;;;;;;8.00;7.40;;;;;;;9.68;100.00;100148.91;5093240;28;20203;-75
2022/01/02 03:35:26;;;;;;;8.67;7.87;;;;;;;9.80;100.00;100151.28;5093032;28;20203;-75
2022/01/02 03:37:53;;;;;;;7.67;7.07;;;;;;;9.86;100.00;100151.19;5093035;28;20214;-75
2022/01/02 03:40:20;;;;;;;7.87;7.37;;;;;;;9.80;100.00;100143.59;5092862;28;20663;-75
2022/01/02 03:42:48;;;;;;;8.13;7.43;;;;;;;9.92;100.00;100167.31;5093011;28;20206;-75
2022/01/02 03:45:15;;;;;;;8.90;7.30;;;;;;;9.91;100.00;100157.13;5093096;28;20570;-75
2022/01/02 03:47:42;;;;;;;8.43;7.73;;;;;;;9.96;100.00;100163.84;5090420;28;20667;-75
2022/01/02 03:50:09;;;;;;;8.17;7.53;;;;;;;10.02;100.00;100160.34;5092865;28;20230;-75
2022/01/02 03:52:36;;;;;;;9.93;8.93;;;;;;;10.05;100.00;100167.97;5092518;28;20199;-75
2022/01/02 03:55:04;;;;;;;8.27;7.63;;;;;;;10.06;100.00;100156.00;5092411;28;20195;-75
2022/01/02 03:57:31;;;;;;;8.87;8.17;;;;;;;10.12;100.00;100155.91;5091512;28;20578;-75
2022/01/02 04:00:00;;;;;;;9.07;8.37;;;;;;;10.13;100.00;100149.91;5091470;28;20218;-75
2022/01/02 04:02:27;;;;;;;9.07;8.30;;;;;;;10.15;100.00;100155.88;5091985;28;20223;-75
2022/01/02 04:04:53;;;;;;;7.73;7.33;;;;;;;10.14;100.00;100160.19;5092579;28;20230;-75
2022/01/02 04:07:20;;;;;;;8.63;7.97;;;;;;;10.18;100.00;100156.69;5092295;28;20204;-75
2022/01/02 04:09:48;;;;;;;8.67;8.00;;;;;;;10.19;100.00;100152.41;5092245;28;20199;-75
2022/01/02 04:12:15;;;;;;;8.57;8.00;;;;;;;9.93;100.00;100109.25;5092279;28;20195;-75
2022/01/02 04:14:42;;;;;;;8.83;8.13;;;;;;;10.21;100.00;100169.44;5091784;28;20672;-75
2022/01/02 04:17:10;;;;;;;7.80;7.20;;;;;;;10.25;100.00;100176.22;5090910;28;20723;-75
2022/01/02 04:19:37;;;;;;;7.90;7.40;;;;;;;10.23;100.00;100175.41;5090944;28;20683;-74
2022/01/02 04:22:04;;;;;;;9.23;8.40;;;;;;;10.19;100.00;100178.88;5091939;28;20192;-75
2022/01/02 04:24:31;;;;;;;8.63;8.03;;;;;;;10.29;100.00;100189.84;5088956;28;20210;-75
2022/01/02 04:26:58;;;;;;;9.07;8.47;;;;;;;10.26;100.00;100185.59;5090239;28;20195;-75
2022/01/02 04:29:25;;;;;;;9.00;8.30;;;;;;;10.25;100.00;100189.03;5091851;28;20659;-75
2022/01/02 04:31:52;;;;;;;9.17;8.27;;;;;;;10.27;100.00;100182.19;5091486;28;20210;-75
2022/01/02 04:34:20;;;;;;;8.43;7.83;;;;;;;10.30;100.00;100192.38;5091701;28;20208;-72
2022/01/02 04:36:47;;;;;;;8.57;7.90;;;;;;;10.29;100.00;100194.97;5091800;28;20199;-70
2022/01/02 04:39:14;;;;;;;9.37;8.50;;;;;;;10.26;100.00;100195.88;5091566;28;20211;-70
2022/01/02 04:41:40;;;;;;;9.43;8.50;;;;;;;10.32;100.00;100200.03;5091908;28;20206;-70
2022/01/02 04:44:07;;;;;;;8.43;7.63;;;;;;;10.34;100.00;100208.56;5091655;28;20199;-70
2022/01/02 04:46:34;;;;;;;9.07;8.27;;;;;;;10.27;100.00;100200.13;5090449;28;20196;-69
2022/01/02 04:49:01;;;;;;;8.33;7.73;;;;;;;10.25;100.00;100204.41;5091639;28;20191;-70
2022/01/02 04:51:29;;;;;;;8.50;7.80;;;;;;;10.24;100.00;100212.94;5091021;28;20203;-70
2022/01/02 04:54:00;;;;;;;8.90;8.20;;;;;;;10.15;100.00;100214.81;5091428;28;20705;-70
2022/01/02 04:56:27;;;;;;;10.27;9.33;;;;;;;9.92;100.00;100199.75;5090715;28;20738;-70
2022/01/02 04:58:53;;;;;;;9.03;8.23;;;;;;;9.86;100.00;100212.66;5091221;28;20215;-70
2022/01/02 05:01:20;;;;;;;8.67;8.07;;;;;;;9.75;100.00;100214.53;5090590;28;20204;-70
2022/01/02 05:03:47;;;;;;;8.57;7.77;;;;;;;9.65;100.00;100210.41;5091597;28;20211;-71
2022/01/02 05:06:14;;;;;;;8.90;8.07;;;;;;;9.57;100.00;100213.06;5091091;28;21048;-72
2022/01/02 05:08:44;;;;;;;9.30;8.40;;;;;;;9.56;100.00;100211.38;5091401;28;20199;-72
2022/01/02 05:11:12;;;;;;;9.57;8.67;;;;;;;9.60;100.00;100217.28;5090791;28;20218;-72
2022/01/02 05:13:39;;;;;;;9.23;8.63;;;;;;;9.65;100.00;100210.41;5090563;28;20203;-72
2022/01/02 05:16:06;;;;;;;9.80;8.83;;;;;;;9.53;100.00;100192.66;5089919;28;20231;-72
2022/01/02 05:18:33;;;;;;;9.63;8.83;;;;;;;9.58;100.00;100206.22;5090967;28;20313;-72
2022/01/02 05:21:00;;;;;;;8.90;8.20;;;;;;;9.70;100.00;100222.28;5091190;28;20199;-72
2022/01/02 05:23:29;;;;;;;9.60;8.87;;;;;;;9.72;100.00;100215.44;5091549;28;20203;-72
2022/01/02 05:25:57;;;;;;;11.20;8.63;;;;;;;9.77;100.00;100215.34;5090899;28;20328;-72
2022/01/02 05:28:24;;;;;;;8.77;7.97;;;;;;;9.78;100.00;100217.91;5090987;28;20195;-72
2022/01/02 05:30:52;;;;;;;9.13;8.37;;;;;;;9.78;100.00;100214.50;5090136;28;20199;-72
2022/01/02 05:33:19;;;;;;;10.40;9.50;;;;;;;9.77;100.00;100215.34;5089472;28;20200;-73
2022/01/02 05:35:46;;;;;;;9.87;9.00;;;;;;;9.77;100.00;100221.31;5087990;28;20211;-72
2022/01/02 05:38:13;;;;;;;8.77;8.13;;;;;;;9.79;100.00;100222.13;5089661;28;20223;-70
2022/01/02 05:40:40;;;;;;;9.33;8.63;;;;;;;9.84;100.00;100227.22;5089173;28;20206;-70
2022/01/02 05:43:08;;;;;;;10.53;8.67;;;;;;;9.87;100.00;100222.03;5090193;28;20203;-73
2022/01/02 05:45:35;;;;;;;9.17;8.27;;;;;;;9.94;100.00;100228.78;5090347;28;20202;-72
2022/01/02 05:48:05;;;;;;;9.33;8.67;;;;;;;9.85;100.00;100213.53;5089744;28;20191;-73
2022/01/02 05:50:32;;;;;;;9.23;8.47;;;;;;;9.92;100.00;100231.34;5089767;28;20199;-72
2022/01/02 05:52:59;;;;;;;8.67;8.07;;;;;;;9.84;100.00;100224.66;5090217;28;20206;-73
2022/01/02 05:55:26;;;;;;;8.93;8.10;;;;;;;9.91;100.00;100223.69;5089975;28;20282;-72
2022/01/02 05:57:53;;;;;;;13.30;9.40;;;;;;;9.95;100.00;100233.88;5090140;28;20203;-72
2022/01/02 06:00:21;;;;;;;15.00;11.57;;;;;;;9.92;100.00;100231.34;5089948;28;20714;-73
2022/01/02 06:02:48;;;;;;;10.13;9.23;;;;;;;9.85;100.00;100218.66;5090211;28;20230;-72
2022/01/02 06:05:15;;;;;;;12.00;10.77;;;;;;;9.85;100.00;100224.66;5090263;28;20549;-72
2022/01/02 06:07:42;;;;;;;16.77;11.27;;;;;;;9.90;100.00;100229.69;5090135;28;20199;-72
2022/01/02 06:10:10;;;;;;;9.20;8.40;;;;;;;9.83;100.00;100221.25;5089507;28;20282;-72
2022/01/02 06:12:37;;;;;;;8.40;7.80;;;;;;;10.01;100.00;100243.19;5088169;28;20209;-70
2022/01/02 06:15:06;;;;;;;8.07;7.37;;;;;;;10.01;100.00;100250.88;5090057;28;20575;-72
2022/01/02 06:17:35;;;;;;;8.40;7.80;;;;;;;9.92;100.00;100246.72;5088724;28;20313;-73
2022/01/02 06:20:02;;;;;;;8.27;7.47;;;;;;;9.96;100.00;100240.69;5090197;28;20207;-72
2022/01/02 06:22:29;;;;;;;7.60;7.13;;;;;;;9.97;100.00;100244.09;5089517;28;20198;-72
2022/01/02 06:24:56;;;;;;;6.50;6.10;;;;;;;9.98;100.00;100235.56;5090184;28;20195;-72
2022/01/02 06:27:22;;;;;;;7.50;6.90;;;;;;;10.06;100.00;100233.72;5089702;28;20245;-72
2022/01/02 06:29:49;;;;;;;7.47;7.00;;;;;;;10.15;100.00;100254.09;5088816;28;20202;-72
2022/01/02 06:32:16;;;;;;;7.40;6.87;;;;;;;10.19;100.00;100260.88;5089783;28;20202;-72
2022/01/02 06:34:46;;;;;;;7.40;6.90;;;;;;;10.23;100.00;100264.25;5089223;28;20199;-72
2022/01/02 06:37:13;;;;;;;7.87;7.23;;;;;;;10.23;100.00;100262.53;5089838;28;20698;-72
2022/01/02 06:39:39;;;;;;;7.20;6.60;;;;;;;10.32;100.00;100266.66;5089804;28;20733;-73
2022/01/02 06:42:07;;;;;;;9.80;8.23;;;;;;;10.42;100.00;100274.19;5089427;28;20195;-72
2022/01/02 06:44:34;;;;;;;9.20;8.40;;;;;;;10.45;100.00;100274.16;5089614;28;20667;-72
2022/01/02 06:47:01;;;;;;;8.90;8.23;;;;;;;10.49;100.00;100275.81;5089152;28;20199;-70
2022/01/02 06:49:32;;;;;;;7.13;6.43;;;;;;;10.51;100.00;100284.31;5100076;28;20247;-69
2022/01/02 06:52:00;;;;;;;7.60;7.00;;;;;;;10.45;100.00;100263.91;5089449;28;20199;-70
2022/01/02 06:54:27;;;;;;;8.13;7.47;;;;;;;10.57;100.00;100295.31;5087902;28;20230;-70
2022/01/02 06:56:54;;;;;;;7.93;7.30;;;;;;;10.60;100.00;100292.72;5089343;28;20215;-70
2022/01/02 06:59:21;;;;;;;6.73;6.23;;;;;;;10.59;100.00;100289.31;5089700;28;20580;-72
2022/01/02 07:01:47;;;;;;;7.67;6.93;;;;;;;10.63;100.00;100290.13;5089475;28;20227;-72
2022/01/02 07:04:14;;;;;;;7.20;6.53;;;;;;;10.65;100.00;100291.78;5088841;28;20195;-72
2022/01/02 07:06:41;;;;;;;8.03;7.30;;;;;;;10.65;100.00;100293.50;5088698;28;20206;-73
2022/01/02 07:09:09;;;;;;;8.07;7.50;;;;;;;10.73;100.00;100289.06;5086306;28;20204;-72
2022/01/02 07:11:36;;;;;;;8.70;7.90;;;;;;;10.77;100.00;100286.44;5085651;28;20226;-72
2022/01/02 07:14:03;;;;;;;11.03;9.83;;;;;;;10.87;100.00;100292.25;5084634;28;20203;-66
2022/01/02 07:16:30;;;;;;;9.13;8.40;;;;;;;10.92;100.00;100290.47;5086100;28;20580;-65
2022/01/02 07:18:57;;;;;;;9.10;8.30;;;;;;;11.01;100.00;100296.28;5087402;28;20215;-65
2022/01/02 07:21:24;;;;;;;7.73;7.23;;;;;;;11.12;100.00;100282.41;5090939;28;20217;-66
2022/01/02 07:23:52;;;;;;;6.57;6.17;;;;;;;11.28;100.00;100288.94;5091470;28;20211;-66
2022/01/02 07:26:21;;;;;;;7.53;7.07;;;;;;;11.35;100.00;100296.50;5090164;28;20204;-67
2022/01/02 07:28:48;;;;;;;7.73;7.20;;;;;;;11.44;100.00;100291.19;5092361;28;20203;-67
2022/01/02 07:31:14;;;;;;;9.07;8.33;;;;;;;11.50;100.00;100296.19;5091348;28;20671;-68
2022/01/02 07:33:41;;;;;;;6.57;6.23;;;;;;;11.59;100.00;100300.34;5091396;28;20646;-66
2022/01/02 07:36:09;;;;;;;8.03;7.37;;;;;;;11.71;100.00;100283.84;5091740;28;20213;-67
2022/01/02 07:38:36;;;;;;;10.23;8.80;;;;;;;11.80;100.00;100293.91;5092079;28;20199;-66
2022/01/02 07:41:03;;;;;;;11.30;10.37;;;;;;;11.89;100.00;100288.63;5092183;28;21898;-67
2022/01/02 07:43:31;;;;;;;9.67;8.97;;;;;;;11.93;100.00;100296.22;5092492;28;20558;-67
2022/01/02 07:45:58;;;;;;;8.97;8.17;;;;;;;11.94;100.00;100282.50;5092069;28;20300;-67
2022/01/02 07:48:25;;;;;;;6.97;6.47;;;;;;;12.06;100.00;100297.63;5089500;28;20207;-67
2022/01/02 07:50:52;;;;;;;7.60;7.13;;;;;;;12.13;100.00;100303.50;5090756;28;20199;-67
2022/01/02 07:53:19;;;;;;;8.13;7.43;;;;;;;12.25;100.00;100298.06;5085849;28;20203;-67
2022/01/02 07:55:46;;;;;;;7.23;6.73;;;;;;;12.34;100.00;100297.03;5085431;28;20199;-72
2022/01/02 07:58:13;;;;;;;7.60;6.90;;;;;;;12.37;100.00;100300.38;5084342;28;20211;-72
2022/01/02 08:00:41;;;;;;;10.67;9.23;;;;;;;12.42;100.00;100301.09;5091775;28;20239;-75
2022/01/02 08:03:08;;;;;;;9.10;8.47;;;;;;;12.53;100.00;100304.28;5090665;28;20245;-74
2022/01/02 08:05:35;;;;;;;9.07;8.33;;;;;;;12.60;100.00;100294.69;5090096;28;20203;-62
2022/01/02 08:08:02;;;;;;;8.23;7.73;;;;;;;12.66;100.00;100299.69;5089841;28;20676;-66
2022/01/02 08:10:29;;;;;;;7.33;6.83;;;;;;;12.73;100.00;100297.81;5090537;28;20199;-63
2022/01/02 08:12:56;;;;;;;8.80;8.10;;;;;;;12.86;100.00;100317.22;5090317;28;20231;-74
2022/01/02 08:15:23;;;;;;;8.47;7.47;;;;;;;12.94;100.00;100315.28;5090081;28;20525;-73
2022/01/02 08:17:51;;;;;;;7.53;6.97;;;;;;;13.02;100.00;100315.94;5089469;28;20214;-74
2022/01/02 08:20:18;;;;;;;7.83;7.23;;;;;;;13.06;100.00;100309.81;5090186;28;20724;-71
2022/01/02 08:22:45;;;;;;;7.73;7.17;;;;;;;13.17;100.00;100327.59;5090573;28;20199;-72
2022/01/02 08:25:12;;;;;;;7.67;7.10;;;;;;;13.24;100.00;100314.53;5086869;28;20199;-72
2022/01/02 08:27:39;;;;;;;9.03;8.33;;;;;;;13.29;100.00;100312.66;5091105;28;20203;-73
2022/01/02 08:30:07;;;;;;;9.23;8.57;;;;;;;13.35;100.00;100312.50;5090313;28;20206;-73
2022/01/02 08:32:36;;;;;;;8.07;7.47;;;;;;;13.41;99.96;100296.88;5088056;28;20203;-73
2022/01/02 08:35:05;;;;;;;7.83;7.33;;;;;;;13.53;100.00;100301.72;5090165;28;20196;-72
2022/01/02 08:37:32;;;;;;;7.03;6.63;;;;;;;13.53;98.98;100304.28;5090650;28;20199;-72
2022/01/02 08:39:59;;;;;;;7.07;6.57;;;;;;;13.69;98.84;100325.31;5091746;28;20289;-72
2022/01/02 08:42:26;;;;;;;7.77;7.17;;;;;;;13.74;99.06;100332.91;5087958;28;20203;-73
2022/01/02 08:44:53;;;;;;;8.47;7.87;;;;;;;13.80;99.62;100330.13;5090377;28;20579;-73
2022/01/02 08:47:19;;;;;;;7.77;7.17;;;;;;;13.88;99.01;100321.31;5088431;28;20199;-72
2022/01/02 08:49:46;;;;;;;7.60;7.10;;;;;;;13.99;98.82;100326.19;5090921;28;20203;-73
2022/01/02 08:52:15;;;;;;;9.47;8.67;;;;;;;14.08;98.59;100331.06;5089793;28;20199;-73
2022/01/02 08:54:42;;;;;;;8.10;7.37;;;;;;;14.16;96.70;100324.78;5089809;28;20203;-71
2022/01/02 08:57:09;;;;;;;6.93;6.43;;;;;;;14.10;96.96;100308.63;5090361;28;20213;-71
2022/01/02 08:59:36;;;;;;;7.17;6.67;;;;;;;14.26;97.30;100324.47;5089144;28;20220;-70
2022/01/02 09:02:04;;;;;;;6.57;6.07;;;;;;;14.29;96.91;100325.25;5087451;28;20717;-71
2022/01/02 09:04:31;;;;;;;6.97;6.53;;;;;;;14.31;96.23;100313.16;5086904;28;20560;-71
2022/01/02 09:06:57;;;;;;;6.80;6.23;;;;;;;14.46;96.38;100317.88;5089216;28;20206;-70
2022/01/02 09:09:26;;;;;;;7.23;6.83;;;;;;;14.48;95.21;100318.66;5088876;28;20195;-71
2022/01/02 09:11:53;;;;;;;7.40;6.37;;;;;;;14.51;94.23;100310.81;5089976;28;20286;-74
2022/01/02 09:14:20;;;;;;;7.40;6.93;;;;;;;14.53;95.00;100309.03;5089582;28;20225;-72
2022/01/02 09:16:47;;;;;;;6.83;6.43;;;;;;;14.67;94.76;100311.16;5089366;28;20213;-73
2022/01/02 09:19:14;;;;;;;6.67;6.17;;;;;;;14.73;95.94;100306.63;5089265;28;20628;-73
2022/01/02 09:21:42;;;;;;;5.57;5.27;;;;;;;14.81;93.97;100306.41;5090343;28;20591;-73
2022/01/02 09:24:08;;;;;;;5.60;5.10;;;;;;;14.92;94.08;100301.75;5089080;28;20203;-74
2022/01/02 09:26:37;;;;;;;6.07;5.67;;;;;;;14.97;92.09;100301.56;5088633;28;20210;-73
2022/01/02 09:29:04;;;;;;;4.70;4.50;;;;;;;14.97;93.01;100299.84;5089729;28;20206;-73
2022/01/02 09:31:31;;;;;;;5.50;5.20;;;;;;;15.09;91.68;100298.56;5088714;28;20201;-74
2022/01/02 09:33:58;;;;;;;5.10;4.73;;;;;;;15.13;91.56;100289.81;5088385;28;20199;-74
2022/01/02 09:36:25;;;;;;;5.80;5.50;;;;;;;15.15;89.21;100278.53;5089251;28;20607;-74
2022/01/02 09:38:52;;;;;;;5.77;5.47;;;;;;;15.21;91.84;100277.50;5089081;28;20582;-74
2022/01/02 09:41:20;;;;;;;6.30;5.90;;;;;;;15.13;90.32;100258.81;5089618;28;20319;-74
2022/01/02 09:43:48;;;;;;;5.40;5.00;;;;;;;15.24;90.06;100269.63;5088542;28;20284;-74
2022/01/02 09:46:20;;;;;;;6.17;5.77;;;;;;;15.28;89.94;100267.78;5088880;28;20586;-74
2022/01/02 09:48:49;;;;;;;5.10;4.80;;;;;;;15.30;89.06;100256.50;5087577;28;20208;-74
2022/01/02 09:51:17;;;;;;;5.50;5.17;;;;;;;15.43;88.23;100273.25;5083985;28;20231;-73
2022/01/02 09:53:46;;;;;;;4.80;4.50;;;;;;;15.47;87.28;100272.25;5087816;28;20204;-75
2022/01/02 09:56:13;;;;;;;4.73;4.47;;;;;;;15.47;86.68;100272.25;5086872;28;20207;-76
2022/01/02 09:58:42;;;;;;;5.73;5.43;;;;;;;15.51;87.23;100255.75;5089355;28;20217;-77
2022/01/02 10:01:16;;;;;;;4.77;4.37;;;;;;;15.47;87.23;100243.81;5088703;28;20220;-77
2022/01/02 10:03:44;;;;;;;4.43;4.10;;;;;;;15.67;87.40;100251.69;5087646;28;20211;-78
2022/01/02 10:06:11;;;;;;;4.33;4.13;;;;;;;15.70;85.85;100251.56;5089435;28;20206;-76
2022/01/02 10:08:38;;;;;;;3.83;3.63;;;;;;;15.80;86.33;100253.84;5089687;28;20222;-75
2022/01/02 10:11:08;;;;;;;4.50;4.30;;;;;;;15.80;87.26;100243.50;5089500;28;20667;-76
2022/01/02 10:13:44;;;;;;;4.70;4.40;;;;;;;15.92;85.84;100241.28;5089376;28;20200;-76
2022/01/02 10:16:34;;;;;;;4.13;3.93;;;;;;;15.94;86.95;100234.28;5081249;28;20202;-74
2022/01/02 10:19:03;;;;;;;4.10;3.90;;;;;;;16.00;84.87;100241.81;5086614;28;20203;-74
2022/01/02 10:21:33;;;;;;;4.30;4.10;;;;;;;16.02;84.61;100231.41;5088352;28;20591;-75
2022/01/02 10:24:15;;;;;;;3.80;3.67;;;;;;;16.04;84.04;100227.03;5089388;28;20203;-75
2022/01/02 10:26:43;;;;;;;4.40;4.10;;;;;;;16.08;83.27;100228.59;5087154;28;20202;-76
2022/01/02 10:29:14;;;;;;;3.90;3.70;;;;;;;16.13;84.73;100226.66;5087913;28;20207;-76
2022/01/02 10:31:42;;;;;;;5.00;4.70;;;;;;;16.19;82.87;100223.81;5083518;28;20210;-76
2022/01/02 10:34:09;;;;;;;4.03;3.77;;;;;;;16.20;82.90;100220.34;5088365;28;20214;-77
2022/01/02 10:36:40;;;;;;;3.73;3.57;;;;;;;16.25;83.35;100215.84;5088715;28;20211;-76
2022/01/02 10:39:11;;;;;;;3.90;3.70;;;;;;;16.27;82.17;100216.59;5088757;28;20659;-76
2022/01/02 10:41:40;;;;;;;3.90;3.70;;;;;;;16.28;82.32;100208.75;5089038;28;20919;-76
2022/01/02 10:44:26;;;;;;;4.10;3.90;;;;;;;16.31;81.53;100202.66;5086181;28;20300;-76
2022/01/02 10:47:21;;;;;;;4.30;4.00;;;;;;;16.37;82.06;100207.56;5087392;28;20229;-77
2022/01/02 10:49:51;;;;;;;4.37;4.03;;;;;;;16.31;81.56;100202.66;5083900;28;20257;-77
2022/01/02 10:52:20;;;;;;;3.50;3.40;;;;;;;16.41;82.15;100197.94;5087495;28;20285;-76
2022/01/02 10:54:47;;;;;;;3.40;3.20;;;;;;;16.53;81.38;100202.59;5087001;28;20198;-76
2022/01/02 10:57:14;;;;;;;3.00;2.90;;;;;;;16.61;80.00;100191.03;5089726;28;20194;-74
2022/01/02 10:59:42;;;;;;;3.90;3.60;;;;;;;16.58;79.28;100179.97;5091079;28;20213;-73
2022/01/02 11:02:12;;;;;;;3.40;3.20;;;;;;;16.47;78.50;100172.63;5091416;28;20230;-73
2022/01/02 11:04:46;;;;;;;3.37;3.27;;;;;;;16.63;79.99;100191.00;5092889;28;20225;-73
2022/01/02 11:07:16;;;;;;;3.37;3.23;;;;;;;16.67;79.01;100182.19;5092663;28;20206;-73
2022/01/02 11:09:43;;;;;;;2.97;2.87;;;;;;;16.72;79.57;100178.50;5092696;28;20228;-74
2022/01/02 11:12:12;;;;;;;3.10;3.00;;;;;;;16.74;78.24;100181.00;5091311;28;20206;-73
2022/01/02 11:14:39;;;;;;;4.40;4.20;;;;;;;16.68;76.87;100166.56;5091995;28;20685;-71
2022/01/02 11:17:06;;;;;;;3.30;3.10;;;;;;;16.41;78.53;100126.31;5092678;28;20199;-71
2022/01/02 11:19:34;;;;;;;3.37;3.07;;;;;;;16.82;79.38;100178.09;5091715;28;20214;-71
2022/01/02 11:22:05;;;;;;;3.37;3.17;;;;;;;16.81;77.44;100172.06;5092934;28;20220;-70
2022/01/02 11:24:38;;;;;;;3.73;3.53;;;;;;;16.82;78.08;100172.91;5091529;28;20231;-72
2022/01/02 11:27:16;;;;;;;2.93;2.80;;;;;;;16.80;77.76;100165.22;5092908;28;20233;-72
2022/01/02 11:29:44;;;;;;;3.00;2.90;;;;;;;16.85;77.37;100154.66;5092450;28;20203;-72
2022/01/02 11:32:22;;;;;;;2.80;2.70;;;;;;;16.89;76.67;100170.00;5092624;28;20604;-71